createdAt,value
2016-03-16T00:00:09.447Z,0
2016-03-16T00:01:09.387Z,0
2016-03-16T00:02:09.422Z,0
2016-03-16T00:03:09.378Z,0
2016-03-16T00:04:09.395Z,0
2016-03-16T00:05:09.367Z,0
2016-03-16T00:06:09.353Z,0
2016-03-16T00:07:09.325Z,0
2016-03-16T00:08:09.343Z,0
2016-03-16T00:09:09.330Z,0
2016-03-16T00:10:09.302Z,0
2016-03-16T00:11:09.289Z,0
2016-03-16T00:12:09.308Z,0
2016-03-16T00:13:09.279Z,0
2016-03-16T00:14:09.282Z,0
2016-03-16T00:15:09.472Z,0
2016-03-16T00:16:09.256Z,0
2016-03-16T00:17:09.243Z,0
2016-03-16T00:18:09.261Z,0
2016-03-16T00:19:09.217Z,0
2016-03-16T00:20:09.226Z,0
2016-03-16T00:21:09.186Z,0
2016-03-16T00:22:09.192Z,0
2016-03-16T00:23:09.151Z,0
2016-03-16T00:24:09.127Z,0
2016-03-16T00:25:11.561Z,0
2016-03-16T00:26:10.559Z,0
2016-03-16T00:27:09.199Z,0
2016-03-16T00:28:10.228Z,0
2016-03-16T00:29:09.665Z,0
2016-03-16T00:30:09.481Z,0
2016-03-16T00:31:09.060Z,0
2016-03-16T00:32:09.124Z,0
2016-03-16T00:33:09.016Z,0
2016-03-16T00:34:10.766Z,0
2016-03-16T00:35:08.988Z,0
2016-03-16T00:36:09.131Z,0
2016-03-16T00:37:08.805Z,0
2016-03-16T00:38:09.792Z,0
2016-03-16T00:39:09.278Z,0
2016-03-16T00:40:10.905Z,0
2016-03-16T00:41:09.939Z,0
2016-03-16T00:42:08.926Z,0
2016-03-16T00:43:08.912Z,0
2016-03-16T00:44:08.900Z,0
2016-03-16T00:45:09.230Z,0
2016-03-16T00:46:08.748Z,0
2016-03-16T00:47:09.235Z,0
2016-03-16T00:48:08.894Z,0
2016-03-16T00:49:08.850Z,0
2016-03-16T00:50:09.884Z,0
2016-03-16T00:51:09.855Z,0
2016-03-16T00:52:09.296Z,0
2016-03-16T00:53:08.799Z,0
2016-03-16T00:54:08.816Z,0
2016-03-16T00:55:09.194Z,0
2016-03-16T00:56:09.103Z,0
2016-03-16T00:57:08.762Z,0
2016-03-16T00:58:08.780Z,0
2016-03-16T00:59:08.769Z,0
2016-03-16T01:00:08.755Z,0
2016-03-16T01:01:08.758Z,0
2016-03-16T01:02:08.713Z,0
2016-03-16T01:03:08.716Z,0
2016-03-16T01:04:08.750Z,0
2016-03-16T01:05:08.691Z,0
2016-03-16T01:06:08.693Z,0
2016-03-16T01:07:08.683Z,0
2016-03-16T01:08:08.717Z,0
2016-03-16T01:09:08.642Z,0
2016-03-16T01:10:08.691Z,0
2016-03-16T01:11:08.646Z,0
2016-03-16T01:12:08.665Z,0
2016-03-16T01:13:08.652Z,0
2016-03-16T01:14:08.612Z,0
2016-03-16T01:15:08.647Z,0
2016-03-16T01:16:08.603Z,0
2016-03-16T01:17:08.620Z,0
2016-03-16T01:18:08.577Z,0
2016-03-16T01:19:08.579Z,0
2016-03-16T01:20:08.551Z,0
2016-03-16T01:21:08.569Z,0
2016-03-16T01:22:08.542Z,0
2016-03-16T01:23:08.544Z,0
2016-03-16T01:24:08.500Z,0
2016-03-16T01:25:08.534Z,0
2016-03-16T01:26:08.552Z,0
2016-03-16T01:27:08.492Z,0
2016-03-16T01:28:08.511Z,0
2016-03-16T01:29:08.481Z,0
2016-03-16T01:30:08.766Z,0
2016-03-16T01:31:08.455Z,0
2016-03-16T01:32:08.458Z,0
2016-03-16T01:33:08.430Z,0
2016-03-16T01:34:08.464Z,0
2016-03-16T01:35:08.419Z,0
2016-03-16T01:36:08.391Z,0
2016-03-16T01:37:08.394Z,0
2016-03-16T01:38:08.397Z,0
2016-03-16T01:39:08.383Z,0
2016-03-16T01:40:08.355Z,0
2016-03-16T01:41:08.358Z,0
2016-03-16T01:42:08.345Z,0
2016-03-16T01:43:08.238Z,0
2016-03-16T01:44:08.318Z,0
2016-03-16T01:45:08.321Z,0
2016-03-16T01:46:09.434Z,0
2016-03-16T01:47:08.311Z,0
2016-03-16T01:48:08.298Z,0
2016-03-16T01:49:08.285Z,0
2016-03-16T01:50:08.320Z,0
2016-03-16T01:51:08.259Z,0
2016-03-16T01:52:08.606Z,0
2016-03-16T01:53:10.062Z,0
2016-03-16T01:54:08.456Z,0
2016-03-16T01:55:08.973Z,0
2016-03-16T01:56:08.976Z,0
2016-03-16T01:57:08.057Z,0
2016-03-16T01:58:08.701Z,0
2016-03-16T01:59:10.094Z,0
2016-03-16T02:00:09.612Z,0
2016-03-16T02:01:08.178Z,0
2016-03-16T02:02:22.352Z,0
2016-03-16T02:03:22.323Z,0
2016-03-16T02:04:08.233Z,0
2016-03-16T02:05:08.219Z,0
2016-03-16T02:06:08.113Z,0
2016-03-16T02:07:08.099Z,0
2016-03-16T02:08:08.086Z,0
2016-03-16T02:09:09.401Z,0
2016-03-16T02:11:22.859Z,0
2016-03-16T02:12:08.362Z,0
2016-03-16T02:13:22.146Z,0
2016-03-16T02:14:08.056Z,0
2016-03-16T02:15:08.417Z,0
2016-03-16T02:16:08.169Z,0
2016-03-16T02:17:07.829Z,0
2016-03-16T02:18:08.003Z,0
2016-03-16T02:19:07.991Z,0
2016-03-16T02:20:07.977Z,0
2016-03-16T02:21:07.951Z,0
2016-03-16T02:22:07.968Z,0
2016-03-16T02:23:07.940Z,0
2016-03-16T02:24:07.926Z,0
2016-03-16T02:25:07.929Z,0
2016-03-16T02:26:07.948Z,0
2016-03-16T02:27:07.903Z,0
2016-03-16T02:28:07.922Z,0
2016-03-16T02:29:07.892Z,0
2016-03-16T02:30:07.881Z,0
2016-03-16T02:31:07.883Z,0
2016-03-16T02:32:07.870Z,0
2016-03-16T02:33:07.858Z,0
2016-03-16T02:34:07.860Z,0
2016-03-16T02:35:07.831Z,0
2016-03-16T02:36:07.819Z,0
2016-03-16T02:37:07.650Z,0
2016-03-16T02:38:07.636Z,0
2016-03-16T02:39:07.795Z,0
2016-03-16T02:40:07.797Z,0
2016-03-16T02:41:07.785Z,0
2016-03-16T02:42:07.757Z,0
2016-03-16T02:43:07.853Z,0
2016-03-16T02:44:07.730Z,0
2016-03-16T02:45:07.780Z,0
2016-03-16T02:46:07.720Z,0
2016-03-16T02:47:07.723Z,0
2016-03-16T02:48:07.693Z,0
2016-03-16T02:49:07.697Z,0
2016-03-16T02:50:07.684Z,0
2016-03-16T02:51:07.687Z,0
2016-03-16T02:52:07.658Z,0
2016-03-16T02:53:07.645Z,0
2016-03-16T02:54:07.632Z,0
2016-03-16T02:55:07.651Z,0
2016-03-16T02:56:07.638Z,0
2016-03-16T02:57:07.625Z,0
2016-03-16T02:58:07.628Z,0
2016-03-16T02:59:07.645Z,0
2016-03-16T03:00:07.586Z,0
2016-03-16T03:01:07.573Z,0
2016-03-16T03:02:07.576Z,0
2016-03-16T03:03:10.250Z,0
2016-03-16T03:04:07.549Z,0
2016-03-16T03:05:08.427Z,0
2016-03-16T03:06:07.524Z,0
2016-03-16T03:07:07.527Z,0
2016-03-16T03:08:07.513Z,0
2016-03-16T03:09:07.532Z,0
2016-03-16T03:10:07.488Z,0
2016-03-16T03:11:07.616Z,0
2016-03-16T03:12:08.790Z,0
2016-03-16T03:13:07.480Z,0
2016-03-16T03:14:07.671Z,0
2016-03-16T03:15:07.892Z,0
2016-03-16T03:16:07.738Z,0
2016-03-16T03:17:07.787Z,0
2016-03-16T03:18:09.541Z,0
2016-03-16T03:19:21.715Z,0
2016-03-16T03:20:07.702Z,0
2016-03-16T03:21:21.830Z,0
2016-03-16T03:22:07.848Z,0
2016-03-16T03:23:07.804Z,0
2016-03-16T03:24:07.776Z,0
2016-03-16T03:25:07.325Z,0
2016-03-16T03:26:07.359Z,0
2016-03-16T03:27:07.299Z,0
2016-03-16T03:28:08.973Z,0
2016-03-16T03:29:21.773Z,0
2016-03-16T03:31:07.935Z,0
2016-03-16T03:33:07.284Z,0
2016-03-16T03:34:07.240Z,0
2016-03-16T03:35:07.243Z,0
2016-03-16T03:36:07.214Z,0
2016-03-16T03:37:07.200Z,0
2016-03-16T03:38:07.189Z,0
2016-03-16T03:39:07.191Z,0
2016-03-16T03:40:07.177Z,0
2016-03-16T03:41:07.165Z,0
2016-03-16T03:42:07.183Z,0
2016-03-16T03:43:07.155Z,0
2016-03-16T03:44:07.141Z,0
2016-03-16T03:45:07.129Z,0
2016-03-16T03:46:07.116Z,0
2016-03-16T03:47:07.119Z,0
2016-03-16T03:48:07.105Z,0
2016-03-16T03:49:07.108Z,0
2016-03-16T03:50:07.080Z,0
2016-03-16T03:51:07.082Z,0
2016-03-16T03:52:07.038Z,0
2016-03-16T03:53:07.072Z,0
2016-03-16T03:54:07.043Z,0
2016-03-16T03:55:07.077Z,0
2016-03-16T03:56:07.048Z,0
2016-03-16T03:57:07.004Z,0
2016-03-16T03:58:06.976Z,0
2016-03-16T03:59:06.979Z,0
2016-03-16T04:00:06.966Z,0
2016-03-16T04:01:06.953Z,0
2016-03-16T04:02:06.956Z,0
2016-03-16T04:03:06.943Z,0
2016-03-16T04:04:06.930Z,0
2016-03-16T04:05:06.947Z,0
2016-03-16T04:06:06.919Z,0
2016-03-16T04:07:06.922Z,0
2016-03-16T04:08:06.893Z,0
2016-03-16T04:09:06.880Z,0
2016-03-16T04:10:06.852Z,0
2016-03-16T04:11:06.855Z,0
2016-03-16T04:12:06.858Z,0
2016-03-16T04:13:06.829Z,0
2016-03-16T04:14:06.816Z,0
2016-03-16T04:15:06.802Z,0
2016-03-16T04:16:06.805Z,0
2016-03-16T04:17:06.793Z,0
2016-03-16T04:18:06.795Z,0
2016-03-16T04:19:06.798Z,0
2016-03-16T04:20:06.785Z,0
2016-03-16T04:21:06.757Z,0
2016-03-16T04:22:09.368Z,0
2016-03-16T04:23:08.669Z,0
2016-03-16T04:24:07.827Z,0
2016-03-16T04:25:06.533Z,0
2016-03-16T04:26:07.161Z,0
2016-03-16T04:27:06.726Z,0
2016-03-16T04:28:06.651Z,0
2016-03-16T04:29:06.669Z,0
2016-03-16T04:30:06.656Z,0
2016-03-16T04:31:07.518Z,0
2016-03-16T04:32:06.646Z,0
2016-03-16T04:33:06.914Z,0
2016-03-16T04:34:07.323Z,0
2016-03-16T04:35:06.764Z,0
2016-03-16T04:36:06.594Z,0
2016-03-16T04:37:21.925Z,0
2016-03-16T04:38:08.052Z,0
2016-03-16T04:39:20.884Z,0
2016-03-16T04:40:07.699Z,0
2016-03-16T04:41:06.545Z,4
2016-03-16T04:42:07.125Z,0
2016-03-16T04:43:06.519Z,0
2016-03-16T04:44:06.475Z,4
2016-03-16T04:45:06.525Z,0
2016-03-16T04:46:06.465Z,4
2016-03-16T04:47:20.671Z,4
2016-03-16T04:48:20.657Z,4
2016-03-16T04:49:06.457Z,4
2016-03-16T04:50:07.163Z,4
2016-03-16T04:51:06.416Z,8
2016-03-16T04:52:06.824Z,8
2016-03-16T04:53:06.749Z,12
2016-03-16T04:54:06.392Z,12
2016-03-16T04:55:06.379Z,16
2016-03-16T04:56:06.367Z,16
2016-03-16T04:57:06.354Z,16
2016-03-16T04:58:06.340Z,28
2016-03-16T04:59:06.187Z,32
2016-03-16T05:00:06.315Z,32
2016-03-16T05:01:06.317Z,36
2016-03-16T05:02:06.289Z,44
2016-03-16T05:03:06.323Z,52
2016-03-16T05:04:06.295Z,60
2016-03-16T05:05:06.281Z,60
2016-03-16T05:06:06.237Z,76
2016-03-16T05:07:06.261Z,96
2016-03-16T05:08:06.233Z,120
2016-03-16T05:09:06.220Z,132
2016-03-16T05:10:06.223Z,160
2016-03-16T05:11:06.209Z,184
2016-03-16T05:12:06.197Z,212
2016-03-16T05:13:06.183Z,236
2016-03-16T05:14:06.170Z,256
2016-03-16T05:15:06.142Z,296
2016-03-16T05:16:06.161Z,316
2016-03-16T05:17:06.117Z,348
2016-03-16T05:18:06.135Z,400
2016-03-16T05:19:06.091Z,428
2016-03-16T05:20:06.077Z,472
2016-03-16T05:21:06.080Z,508
2016-03-16T05:22:06.083Z,556
2016-03-16T05:23:06.069Z,600
2016-03-16T05:24:06.072Z,652
2016-03-16T05:25:06.060Z,696
2016-03-16T05:26:06.032Z,752
2016-03-16T05:27:06.019Z,800
2016-03-16T05:28:06.021Z,852
2016-03-16T05:29:05.977Z,936
2016-03-16T05:30:05.979Z,992
2016-03-16T05:31:05.951Z,1060
2016-03-16T05:32:05.954Z,1124
2016-03-16T05:33:05.987Z,1204
2016-03-16T05:34:05.943Z,1276
2016-03-16T05:35:05.931Z,1356
2016-03-16T05:36:05.901Z,1428
2016-03-16T05:37:05.920Z,1508
2016-03-16T05:38:05.923Z,1604
2016-03-16T05:39:05.895Z,1692
2016-03-16T05:40:05.882Z,1800
2016-03-16T05:41:08.025Z,1892
2016-03-16T05:42:07.918Z,2040
2016-03-16T05:43:07.061Z,2088
2016-03-16T05:44:05.845Z,2144
2016-03-16T05:45:06.458Z,2276
2016-03-16T05:46:06.022Z,2544
2016-03-16T05:47:05.791Z,2472
2016-03-16T05:48:05.793Z,2532
2016-03-16T05:49:05.764Z,2648
2016-03-16T05:50:06.877Z,2740
2016-03-16T05:51:05.755Z,2800
2016-03-16T05:52:06.695Z,2816
2016-03-16T05:53:06.885Z,2856
2016-03-16T05:54:06.685Z,2976
2016-03-16T05:55:05.796Z,3228
2016-03-16T05:57:19.849Z,3852
2016-03-16T05:58:06.586Z,3736
2016-03-16T05:59:05.730Z,3660
2016-03-16T06:00:05.655Z,3728
2016-03-16T06:01:05.657Z,4028
2016-03-16T06:02:06.066Z,4084
2016-03-16T06:03:06.163Z,4216
2016-03-16T06:04:05.587Z,4372
2016-03-16T06:05:05.637Z,4508
2016-03-16T06:06:07.529Z,4668
2016-03-16T06:07:05.595Z,4788
2016-03-16T06:08:05.612Z,4876
2016-03-16T06:09:05.600Z,5040
2016-03-16T06:10:06.196Z,5176
2016-03-16T06:11:05.558Z,5176
2016-03-16T06:12:05.531Z,5264
2016-03-16T06:13:05.533Z,5348
2016-03-16T06:14:05.536Z,5552
2016-03-16T06:15:05.507Z,5648
2016-03-16T06:16:05.509Z,5716
2016-03-16T06:17:05.465Z,6048
2016-03-16T06:18:05.483Z,6308
2016-03-16T06:19:05.470Z,6560
2016-03-16T06:20:05.442Z,6604
2016-03-16T06:21:05.444Z,6652
2016-03-16T06:22:05.432Z,6704
2016-03-16T06:23:05.435Z,6888
2016-03-16T06:24:05.421Z,6868
2016-03-16T06:25:05.425Z,7104
2016-03-16T06:26:05.396Z,7296
2016-03-16T06:27:05.446Z,7196
2016-03-16T06:28:05.370Z,6972
2016-03-16T06:29:05.436Z,7712
2016-03-16T06:30:05.374Z,7932
2016-03-16T06:31:05.362Z,8468
2016-03-16T06:32:05.365Z,8652
2016-03-16T06:33:05.352Z,8484
2016-03-16T06:34:05.355Z,8968
2016-03-16T06:35:05.326Z,9368
2016-03-16T06:36:05.360Z,9824
2016-03-16T06:37:05.347Z,10060
2016-03-16T06:38:05.335Z,9848
2016-03-16T06:39:05.306Z,9732
2016-03-16T06:40:05.292Z,10028
2016-03-16T06:41:05.326Z,10416
2016-03-16T06:42:05.282Z,10996
2016-03-16T06:43:05.284Z,11208
2016-03-16T06:44:05.320Z,11308
2016-03-16T06:45:05.290Z,11452
2016-03-16T06:46:05.262Z,11172
2016-03-16T06:47:05.250Z,11648
2016-03-16T06:48:05.283Z,11812
2016-03-16T06:49:05.255Z,11964
2016-03-16T06:50:05.257Z,12392
2016-03-16T06:51:05.228Z,12220
2016-03-16T06:52:05.263Z,12324
2016-03-16T06:53:05.203Z,12708
2016-03-16T06:54:05.269Z,13168
2016-03-16T06:55:05.208Z,13536
2016-03-16T06:56:05.242Z,13556
2016-03-16T06:57:05.213Z,14036
2016-03-16T06:58:05.216Z,14592
2016-03-16T06:59:05.218Z,14816
2016-03-16T07:00:05.205Z,14912
2016-03-16T07:01:05.318Z,14208
2016-03-16T07:02:05.196Z,15392
2016-03-16T07:03:05.214Z,16032
2016-03-16T07:04:05.389Z,15936
2016-03-16T07:05:05.266Z,16704
2016-03-16T07:06:05.176Z,16992
2016-03-16T07:07:05.163Z,17024
2016-03-16T07:08:05.165Z,16928
2016-03-16T07:09:06.746Z,16704
2016-03-16T07:10:07.264Z,17792
2016-03-16T07:11:05.657Z,13728
2016-03-16T07:12:06.331Z,18400
2016-03-16T07:13:05.162Z,20800
2016-03-16T07:14:05.790Z,21600
2016-03-16T07:15:20.292Z,22304
2016-03-16T07:16:19.842Z,21760
2016-03-16T07:19:14.148Z,23520
2016-03-16T07:20:14.603Z,23648
2016-03-16T07:21:14.169Z,25472
2016-03-16T07:22:14.139Z,21920
2016-03-16T07:23:14.174Z,20544
2016-03-16T07:24:14.145Z,24704
2016-03-16T07:25:14.445Z,26208
2016-03-16T07:26:14.948Z,23200
2016-03-16T07:27:14.701Z,19040
2016-03-16T07:28:14.125Z,12876
2016-03-16T07:29:28.753Z,26176
2016-03-16T07:30:14.599Z,21184
2016-03-16T07:31:14.133Z,25792
2016-03-16T07:32:14.135Z,24832
2016-03-16T07:33:14.154Z,29184
2016-03-16T07:34:14.157Z,25248
2016-03-16T07:35:14.128Z,27680
2016-03-16T07:36:14.131Z,19296
2016-03-16T07:37:14.118Z,21184
2016-03-16T07:38:14.137Z,8100
2016-03-16T07:39:14.124Z,9612
2016-03-16T07:40:14.142Z,17856
2016-03-16T07:41:14.113Z,17952
2016-03-16T07:42:14.162Z,23008
2016-03-16T07:43:14.103Z,20448
2016-03-16T07:44:14.183Z,16256
2016-03-16T07:45:14.123Z,24896
2016-03-16T07:46:14.126Z,23648
2016-03-16T07:47:14.144Z,22848
2016-03-16T07:48:14.116Z,22496
2016-03-16T07:49:14.103Z,25184
2016-03-16T07:50:14.137Z,18272
2016-03-16T07:51:14.125Z,13168
2016-03-16T07:52:14.111Z,10084
2016-03-16T07:53:14.130Z,11024
2016-03-16T07:54:14.100Z,18240
2016-03-16T07:55:14.103Z,9220
2016-03-16T07:56:14.091Z,7856
2016-03-16T07:57:14.109Z,7652
2016-03-16T07:58:14.097Z,8844
2016-03-16T07:59:14.115Z,9548
2016-03-16T08:00:14.102Z,12664
2016-03-16T08:01:14.105Z,15968
2016-03-16T08:02:14.091Z,24768
2016-03-16T08:03:14.110Z,28480
2016-03-16T08:04:14.065Z,32448
2016-03-16T08:05:14.084Z,35008
2016-03-16T08:06:14.114Z,31616
2016-03-16T08:07:14.086Z,31072
2016-03-16T08:08:14.057Z,35072
2016-03-16T08:09:14.075Z,33920
2016-03-16T08:10:14.047Z,21888
2016-03-16T08:11:14.064Z,16028
2016-03-16T08:12:14.052Z,13204
2016-03-16T08:13:14.055Z,11752
2016-03-16T08:14:14.057Z,13440
2016-03-16T08:15:14.075Z,12408
2016-03-16T08:16:14.032Z,12936
2016-03-16T08:17:14.050Z,11744
2016-03-16T08:18:14.052Z,10804
2016-03-16T08:19:14.899Z,8884
2016-03-16T08:20:14.668Z,8672
2016-03-16T08:21:14.030Z,10104
2016-03-16T08:22:15.219Z,11852
2016-03-16T08:23:14.018Z,10896
2016-03-16T08:24:14.021Z,9564
2016-03-16T08:25:14.477Z,9796
2016-03-16T08:26:13.996Z,9396
2016-03-16T08:27:13.999Z,9260
2016-03-16T08:28:15.048Z,9056
2016-03-16T08:29:14.067Z,8676
2016-03-16T08:30:14.960Z,8584
2016-03-16T08:31:15.165Z,8720
2016-03-16T08:32:15.028Z,8976
2016-03-16T08:33:14.109Z,9224
2016-03-16T08:34:15.080Z,9244
2016-03-16T08:35:14.473Z,9400
2016-03-16T08:37:13.994Z,9464
2016-03-16T08:38:13.934Z,9388
2016-03-16T08:39:13.937Z,9640
2016-03-16T08:40:14.158Z,9740
2016-03-16T08:41:14.255Z,9812
2016-03-16T08:42:14.038Z,9568
2016-03-16T08:43:13.900Z,9196
2016-03-16T08:44:15.263Z,8852
2016-03-16T08:45:28.078Z,8748
2016-03-16T08:46:13.893Z,8636
2016-03-16T08:47:28.069Z,8952
2016-03-16T08:48:13.883Z,8956
2016-03-16T08:49:14.167Z,8560
2016-03-16T08:50:13.701Z,8396
2016-03-16T08:51:13.860Z,8404
2016-03-16T08:52:13.847Z,8488
2016-03-16T08:53:13.834Z,8460
2016-03-16T08:54:13.837Z,8668
2016-03-16T08:55:13.840Z,8552
2016-03-16T08:56:13.811Z,8604
2016-03-16T08:57:13.813Z,9180
2016-03-16T08:58:13.801Z,9016
2016-03-16T08:59:13.804Z,8392
2016-03-16T09:00:13.775Z,8320
2016-03-16T09:01:13.809Z,8640
2016-03-16T09:02:13.765Z,8688
2016-03-16T09:03:13.798Z,8516
2016-03-16T09:04:13.770Z,8372
2016-03-16T09:05:13.772Z,7924
2016-03-16T09:06:13.760Z,7904
2016-03-16T09:07:13.783Z,7876
2016-03-16T09:08:13.739Z,7980
2016-03-16T09:09:13.726Z,7912
2016-03-16T09:10:13.728Z,7668
2016-03-16T09:11:13.731Z,7504
2016-03-16T09:12:13.702Z,7292
2016-03-16T09:13:13.689Z,7240
2016-03-16T09:14:13.724Z,7244
2016-03-16T09:15:13.694Z,7088
2016-03-16T09:16:13.682Z,6912
2016-03-16T09:17:13.669Z,6852
2016-03-16T09:18:13.702Z,7124
2016-03-16T09:19:13.643Z,7276
2016-03-16T09:20:13.661Z,7340
2016-03-16T09:21:13.667Z,7428
2016-03-16T09:22:13.654Z,7544
2016-03-16T09:23:13.626Z,7620
2016-03-16T09:24:13.629Z,7444
2016-03-16T09:25:13.471Z,7336
2016-03-16T09:26:13.716Z,7264
2016-03-16T09:27:14.357Z,7344
2016-03-16T09:28:13.393Z,7348
2016-03-16T09:29:13.906Z,7456
2016-03-16T09:30:41.435Z,7436
2016-03-16T09:31:13.496Z,7380
2016-03-16T09:32:13.509Z,7248
2016-03-16T09:33:13.476Z,7428
2016-03-16T09:34:13.474Z,7228
2016-03-16T09:35:13.457Z,6772
2016-03-16T09:36:13.427Z,6756
2016-03-16T09:37:13.427Z,6880
2016-03-16T09:38:15.491Z,6964
2016-03-16T09:39:15.287Z,7060
2016-03-16T09:40:14.601Z,7292
2016-03-16T09:41:13.526Z,8252
2016-03-16T09:42:14.340Z,8068
2016-03-16T09:43:13.827Z,7252
2016-03-16T09:44:13.437Z,6860
2016-03-16T09:45:13.956Z,6904
2016-03-16T09:46:13.334Z,7064
2016-03-16T09:47:15.929Z,7392
2016-03-16T09:48:14.932Z,7564
2016-03-16T09:49:13.342Z,9368
2016-03-16T09:50:13.516Z,9392
2016-03-16T09:51:13.644Z,10668
2016-03-16T09:52:14.021Z,8888
2016-03-16T09:53:28.742Z,7444
2016-03-16T09:54:15.339Z,7612
2016-03-16T09:55:14.091Z,7352
2016-03-16T09:56:13.314Z,7548
2016-03-16T09:57:13.268Z,7320
2016-03-16T09:58:13.288Z,7432
2016-03-16T09:59:13.305Z,7260
2016-03-16T10:00:13.277Z,7228
2016-03-16T10:01:13.232Z,8456
2016-03-16T10:02:13.267Z,9780
2016-03-16T10:03:15.238Z,9800
2016-03-16T10:04:13.240Z,7900
2016-03-16T10:05:13.212Z,7172
2016-03-16T10:06:13.246Z,6544
2016-03-16T10:07:13.404Z,6632
2016-03-16T10:08:13.408Z,6756
2016-03-16T10:09:13.223Z,6856
2016-03-16T10:10:13.194Z,6960
2016-03-16T10:11:13.182Z,6896
2016-03-16T10:12:13.184Z,7044
2016-03-16T10:13:13.187Z,6944
2016-03-16T10:14:13.158Z,7112
2016-03-16T10:15:13.146Z,7260
2016-03-16T10:16:13.164Z,7732
2016-03-16T10:17:13.151Z,8284
2016-03-16T10:18:13.138Z,8176
2016-03-16T10:19:13.156Z,8428
2016-03-16T10:20:13.128Z,9844
2016-03-16T10:21:13.114Z,10704
2016-03-16T10:22:13.103Z,9876
2016-03-16T10:23:13.120Z,9224
2016-03-16T10:24:13.123Z,8736
2016-03-16T10:25:13.110Z,9688
2016-03-16T10:26:13.128Z,10748
2016-03-16T10:27:13.100Z,12120
2016-03-16T10:28:13.071Z,13512
2016-03-16T10:29:13.089Z,14532
2016-03-16T10:30:13.061Z,14616
2016-03-16T10:31:13.079Z,13952
2016-03-16T10:32:13.035Z,11944
2016-03-16T10:33:13.069Z,9696
2016-03-16T10:34:13.040Z,7888
2016-03-16T10:35:13.027Z,6928
2016-03-16T10:36:13.046Z,6448
2016-03-16T10:37:13.033Z,6404
2016-03-16T10:38:13.004Z,6184
2016-03-16T10:39:13.023Z,6372
2016-03-16T10:40:13.040Z,6196
2016-03-16T10:41:13.012Z,6332
2016-03-16T10:42:13.015Z,6360
2016-03-16T10:43:13.001Z,6008
2016-03-16T10:44:12.989Z,5988
2016-03-16T10:45:12.992Z,5692
2016-03-16T10:46:12.994Z,5984
2016-03-16T10:47:12.965Z,6204
2016-03-16T10:48:12.968Z,6432
2016-03-16T10:49:12.971Z,6996
2016-03-16T10:50:12.958Z,7784
2016-03-16T10:51:12.993Z,7712
2016-03-16T10:52:12.933Z,7148
2016-03-16T10:53:12.998Z,6764
2016-03-16T10:54:12.953Z,7056
2016-03-16T10:55:12.941Z,6768
2016-03-16T10:56:12.194Z,5920
2016-03-16T10:57:13.212Z,5740
2016-03-16T10:58:13.355Z,5676
2016-03-16T10:59:12.905Z,5640
2016-03-16T11:00:14.063Z,5608
2016-03-16T11:01:12.895Z,5584
2016-03-16T11:02:13.241Z,5580
2016-03-16T11:03:13.369Z,5564
2016-03-16T11:04:12.887Z,5532
2016-03-16T11:05:12.889Z,5496
2016-03-16T11:06:14.408Z,5500
2016-03-16T11:07:13.004Z,5564
2016-03-16T11:08:14.163Z,5644
2016-03-16T11:09:12.869Z,5700
2016-03-16T11:10:12.857Z,5760
2016-03-16T11:11:13.249Z,5808
2016-03-16T11:12:14.424Z,5924
2016-03-16T11:13:13.661Z,6232
2016-03-16T11:14:12.820Z,6492
2016-03-16T11:15:13.651Z,6692
2016-03-16T11:16:13.779Z,7140
2016-03-16T11:17:13.297Z,8448
2016-03-16T11:18:12.815Z,10248
2016-03-16T11:19:12.771Z,10276
2016-03-16T11:20:12.774Z,8796
2016-03-16T11:21:12.761Z,7316
2016-03-16T11:22:13.514Z,6616
2016-03-16T11:23:27.953Z,6364
2016-03-16T11:24:27.582Z,5832
2016-03-16T11:25:12.975Z,5592
2016-03-16T11:26:12.742Z,5420
2016-03-16T11:27:12.870Z,5316
2016-03-16T11:28:13.311Z,5260
2016-03-16T11:29:12.923Z,5248
2016-03-16T11:30:12.801Z,5368
2016-03-16T11:31:12.710Z,5440
2016-03-16T11:32:12.712Z,5280
2016-03-16T11:33:12.700Z,5132
2016-03-16T11:34:12.702Z,5092
2016-03-16T11:35:12.688Z,5060
2016-03-16T11:36:12.692Z,5024
2016-03-16T11:37:12.694Z,5004
2016-03-16T11:38:12.682Z,4992
2016-03-16T11:39:12.684Z,4972
2016-03-16T11:40:12.656Z,4940
2016-03-16T11:41:12.643Z,4904
2016-03-16T11:42:12.645Z,4904
2016-03-16T11:43:12.680Z,4904
2016-03-16T11:44:12.635Z,4896
2016-03-16T11:45:12.716Z,4872
2016-03-16T11:46:12.640Z,4840
2016-03-16T11:47:12.627Z,4808
2016-03-16T11:48:12.615Z,4776
2016-03-16T11:49:12.633Z,4744
2016-03-16T11:50:12.604Z,4724
2016-03-16T11:51:12.623Z,4712
2016-03-16T11:52:12.595Z,4704
2016-03-16T11:53:12.597Z,4696
2016-03-16T11:54:12.584Z,4672
2016-03-16T11:55:12.586Z,4652
2016-03-16T11:56:12.559Z,4632
2016-03-16T11:57:12.561Z,4608
2016-03-16T11:58:12.579Z,4600
2016-03-16T11:59:12.566Z,4592
2016-03-16T12:00:12.506Z,4588
2016-03-16T12:01:12.556Z,4580
2016-03-16T12:02:12.558Z,4584
2016-03-16T12:03:12.561Z,4584
2016-03-16T12:04:12.533Z,4580
2016-03-16T12:05:12.520Z,4576
2016-03-16T12:06:12.522Z,4572
2016-03-16T12:07:12.525Z,4572
2016-03-16T12:08:12.513Z,4568
2016-03-16T12:09:12.515Z,4568
2016-03-16T12:10:12.518Z,4568
2016-03-16T12:11:12.474Z,4560
2016-03-16T12:12:12.507Z,4564
2016-03-16T12:13:12.479Z,4572
2016-03-16T12:14:12.325Z,4576
2016-03-16T12:15:12.468Z,4572
2016-03-16T12:16:14.315Z,4564
2016-03-16T12:17:14.490Z,4556
2016-03-16T12:18:13.852Z,4548
2016-03-16T12:19:12.792Z,4544
2016-03-16T12:20:12.888Z,4536
2016-03-16T12:21:12.423Z,4528
2016-03-16T12:22:12.753Z,4516
2016-03-16T12:23:12.443Z,4500
2016-03-16T12:24:12.430Z,4496
2016-03-16T12:26:13.998Z,4508
2016-03-16T12:27:12.423Z,4512
2016-03-16T12:28:13.300Z,4516
2016-03-16T12:29:13.084Z,4512
2016-03-16T12:30:12.431Z,4516
2016-03-16T12:31:13.200Z,4508
2016-03-16T12:32:12.514Z,4500
2016-03-16T12:33:12.376Z,4492
2016-03-16T12:34:12.708Z,4480
2016-03-16T12:35:12.803Z,4468
2016-03-16T12:36:12.338Z,4456
2016-03-16T12:37:12.340Z,4448
2016-03-16T12:38:12.344Z,4444
2016-03-16T12:39:12.330Z,4448
2016-03-16T12:40:12.349Z,4452
2016-03-16T12:41:12.804Z,4456
2016-03-16T12:42:27.166Z,4460
2016-03-16T12:43:13.263Z,4464
2016-03-16T12:44:12.703Z,4460
2016-03-16T12:45:12.158Z,4444
2016-03-16T12:46:12.535Z,4440
2016-03-16T12:47:12.430Z,4436
2016-03-16T12:48:12.276Z,4440
2016-03-16T12:49:12.294Z,4432
2016-03-16T12:50:12.281Z,4440
2016-03-16T12:51:12.269Z,4448
2016-03-16T12:52:12.271Z,4444
2016-03-16T12:53:12.259Z,4444
2016-03-16T12:54:12.261Z,4448
2016-03-16T12:55:12.264Z,4456
2016-03-16T12:56:12.235Z,4464
2016-03-16T12:57:12.238Z,4464
2016-03-16T12:58:12.240Z,4464
2016-03-16T12:59:12.228Z,4456
2016-03-16T13:00:12.231Z,4448
2016-03-16T13:01:12.218Z,4440
2016-03-16T13:02:12.220Z,4436
2016-03-16T13:03:12.222Z,4440
2016-03-16T13:04:12.226Z,4436
2016-03-16T13:05:12.181Z,4424
2016-03-16T13:06:12.200Z,4424
2016-03-16T13:07:12.186Z,4420
2016-03-16T13:08:12.189Z,4416
2016-03-16T13:09:12.161Z,4400
2016-03-16T13:10:12.194Z,4392
2016-03-16T13:11:12.150Z,4376
2016-03-16T13:12:12.199Z,4368
2016-03-16T13:13:12.156Z,4356
2016-03-16T13:14:12.174Z,4344
2016-03-16T13:15:12.146Z,4344
2016-03-16T13:16:12.148Z,4332
2016-03-16T13:17:12.167Z,4320
2016-03-16T13:18:12.138Z,4308
2016-03-16T13:19:12.156Z,4296
2016-03-16T13:20:12.112Z,4296
2016-03-16T13:21:12.114Z,4288
2016-03-16T13:22:12.087Z,4284
2016-03-16T13:23:12.135Z,4280
2016-03-16T13:24:12.092Z,4288
2016-03-16T13:25:12.094Z,4284
2016-03-16T13:26:12.066Z,4284
2016-03-16T13:27:12.131Z,4280
2016-03-16T13:28:12.055Z,4276
2016-03-16T13:29:12.073Z,4276
2016-03-16T13:30:12.046Z,4276
2016-03-16T13:31:12.064Z,4276
2016-03-16T13:32:12.066Z,4276
2016-03-16T13:33:12.053Z,4276
2016-03-16T13:34:12.055Z,4280
2016-03-16T13:35:12.637Z,4280
2016-03-16T13:36:12.780Z,4276
2016-03-16T13:37:12.361Z,4272
2016-03-16T13:38:12.019Z,4268
2016-03-16T13:39:12.711Z,4264
2016-03-16T13:40:12.650Z,4260
2016-03-16T13:41:12.387Z,4260
2016-03-16T13:42:12.296Z,4256
2016-03-16T13:43:12.002Z,4244
2016-03-16T13:44:13.036Z,4236
2016-03-16T13:45:12.429Z,4232
2016-03-16T13:46:13.604Z,4220
2016-03-16T13:47:11.981Z,4216
2016-03-16T13:48:12.000Z,4208
2016-03-16T13:49:12.643Z,4208
2016-03-16T13:50:27.787Z,4204
2016-03-16T13:51:11.960Z,4200
2016-03-16T13:52:27.246Z,4196
2016-03-16T13:53:11.935Z,4192